Time;durP1;ratioP1;P1;durP2;ratioP2;P2;SDS_P1;SDS_P2;PMS_P1;PMS_P2;Temp;Humidity;BMP_temperature;BMP_pressure;BME280_temperature;BME280_humidity;BME280_pressure;Samples;Min_cycle;Max_cycle;Signal;HPM_P1;HPM_P2
2022/07/31 00:02:13;;;;;;;9.07;1.95;;;13.80;80.30;;;;;;4983740;28;20583;-75
2022/07/31 00:04:40;;;;;;;9.48;2.00;;;13.80;80.90;;;;;;4985172;28;20019;-77
2022/07/31 00:07:06;;;;;;;28.52;3.30;;;13.80;81.10;;;;;;4984504;28;20129;-69
2022/07/31 00:09:33;;;;;;;22.08;2.78;;;13.80;81.30;;;;;;4985073;28;20015;-68
2022/07/31 00:11:59;;;;;;;9.15;2.55;;;13.80;81.40;;;;;;4982266;28;20607;-69
2022/07/31 00:14:26;;;;;;;23.08;2.40;;;13.70;81.30;;;;;;4984929;28;20026;-67
2022/07/31 00:16:52;;;;;;;6.47;1.52;;;13.80;81.30;;;;;;4983400;28;20030;-67
2022/07/31 00:19:19;;;;;;;3.72;1.20;;;13.70;80.80;;;;;;4984264;28;20035;-77
2022/07/31 00:21:45;;;;;;;5.00;1.42;;;13.70;80.40;;;;;;4986190;28;20130;-74
2022/07/31 00:24:13;;;;;;;3.55;1.33;;;13.70;80.20;;;;;;4986100;28;20023;-67
2022/07/31 00:26:40;;;;;;;3.70;1.20;;;13.60;80.10;;;;;;4980602;28;20528;-68
2022/07/31 00:29:06;;;;;;;1.33;1.05;;;13.60;80.00;;;;;;4985709;28;20031;-68
2022/07/31 00:31:33;;;;;;;2.83;0.90;;;13.60;80.00;;;;;;4979443;28;20034;-69
2022/07/31 00:33:59;;;;;;;4.28;1.27;;;13.60;79.90;;;;;;4983784;28;20030;-68
2022/07/31 00:36:26;;;;;;;2.65;1.00;;;13.60;80.00;;;;;;4981341;28;20019;-72
2022/07/31 00:38:52;;;;;;;1.65;1.00;;;13.60;79.90;;;;;;4986533;28;20033;-67
2022/07/31 00:41:19;;;;;;;1.67;1.38;;;13.50;79.70;;;;;;4985719;28;20389;-74
2022/07/31 00:43:45;;;;;;;2.15;1.02;;;13.50;79.80;;;;;;4982176;28;20023;-68
2022/07/31 00:46:12;;;;;;;3.38;1.20;;;13.50;80.00;;;;;;4985897;28;20088;-69
2022/07/31 00:48:39;;;;;;;2.63;1.35;;;13.50;80.10;;;;;;4987057;28;20034;-70
2022/07/31 00:51:05;;;;;;;4.15;2.10;;;13.50;80.00;;;;;;4989033;28;20033;-68
2022/07/31 00:53:32;;;;;;;1.95;1.58;;;13.50;80.00;;;;;;4987906;28;20029;-78
2022/07/31 00:55:59;;;;;;;5.70;1.35;;;13.50;80.00;;;;;;4984830;28;20025;-69
2022/07/31 00:58:25;;;;;;;10.57;2.10;;;13.50;79.90;;;;;;4984771;28;20030;-80
2022/07/31 01:00:52;;;;;;;7.93;1.60;;;13.50;80.00;;;;;;4986293;28;20034;-68
2022/07/31 01:03:18;;;;;;;1.77;1.30;;;13.40;79.80;;;;;;4981768;28;20027;-68
2022/07/31 01:05:45;;;;;;;3.63;1.27;;;13.40;79.80;;;;;;4987230;28;20027;-69
2022/07/31 01:08:11;;;;;;;4.20;1.30;;;13.50;80.00;;;;;;4995827;28;20038;-68
2022/07/31 01:10:46;;;;;;;2.60;1.45;;;13.50;80.00;;;;;;4988366;28;20373;-69
2022/07/31 01:13:46;;;;;;;2.25;1.42;;;13.50;79.80;;;;;;4997352;28;20393;-68
2022/07/31 01:16:14;;;;;;;1.55;1.20;;;13.40;79.60;;;;;;4954616;28;20046;-68
2022/07/31 01:18:42;;;;;;;11.85;2.03;;;13.40;79.60;;;;;;4988084;28;20069;-68
2022/07/31 01:21:15;;;;;;;8.18;1.83;;;13.40;79.60;;;;;;4979542;28;20073;-68
2022/07/31 01:24:02;;;;;;;7.13;2.03;;;13.40;79.40;;;;;;4979969;28;20029;-71
2022/07/31 01:27:03;;;;;;;2.92;1.67;;;13.40;79.30;;;;;;4981357;28;20109;-68
2022/07/31 01:29:37;;;;;;;4.70;1.40;;;13.40;79.30;;;;;;4974827;28;20050;-68
2022/07/31 01:32:16;;;;;;;2.78;1.52;;;13.30;79.20;;;;;;4986435;28;20030;-68
2022/07/31 01:34:54;;;;;;;2.88;1.17;;;13.30;79.20;;;;;;4985284;28;20033;-70
2022/07/31 01:37:35;;;;;;;2.63;1.50;;;13.30;79.10;;;;;;4982798;28;20022;-68
2022/07/31 01:40:10;;;;;;;1.80;1.55;;;13.30;79.20;;;;;;4985359;28;20014;-67
2022/07/31 01:42:41;;;;;;;3.22;1.65;;;13.30;79.20;;;;;;4978955;28;20030;-68
2022/07/31 01:45:13;;;;;;;2.75;1.92;;;13.30;79.20;;;;;;4988060;28;20563;-75
2022/07/31 01:47:41;;;;;;;4.63;1.55;;;13.20;79.20;;;;;;4980678;28;20036;-68
2022/07/31 01:50:09;;;;;;;3.38;1.70;;;13.20;79.20;;;;;;4985219;28;20083;-68
2022/07/31 01:52:38;;;;;;;2.55;1.30;;;13.20;79.10;;;;;;4983138;28;20464;-68
2022/07/31 01:55:05;;;;;;;5.38;1.58;;;13.20;78.90;;;;;;4987061;28;20023;-82
2022/07/31 01:57:35;;;;;;;2.50;1.15;;;13.20;79.00;;;;;;4981803;28;20034;-68
2022/07/31 02:00:05;;;;;;;3.42;0.90;;;13.20;78.90;;;;;;4985722;28;20050;-83
2022/07/31 02:02:32;;;;;;;1.85;1.00;;;13.20;79.30;;;;;;4982466;28;20027;-73
2022/07/31 02:04:59;;;;;;;1.95;1.00;;;13.20;78.60;;;;;;4990551;28;20536;-67
2022/07/31 02:07:28;;;;;;;1.33;1.00;;;13.20;78.60;;;;;;4982413;28;20081;-72
2022/07/31 02:09:55;;;;;;;12.07;1.38;;;13.10;78.50;;;;;;4982760;28;20106;-68
2022/07/31 02:12:23;;;;;;;7.63;1.40;;;13.10;78.80;;;;;;4984451;28;20021;-69
2022/07/31 02:14:50;;;;;;;4.22;0.95;;;13.10;78.70;;;;;;4987627;28;20118;-76
2022/07/31 02:17:18;;;;;;;2.88;0.82;;;13.10;78.60;;;;;;4983033;28;20098;-69
2022/07/31 02:19:44;;;;;;;3.40;1.25;;;13.10;78.30;;;;;;4983999;28;20073;-67
2022/07/31 02:22:12;;;;;;;0.80;0.75;;;13.10;78.10;;;;;;4981676;28;20501;-71
2022/07/31 02:24:38;;;;;;;0.60;0.60;;;13.10;78.00;;;;;;4990125;28;20022;-67
2022/07/31 02:27:06;;;;;;;1.67;0.82;;;13.00;77.90;;;;;;4981488;28;20030;-70
2022/07/31 02:29:34;;;;;;;10.60;1.35;;;13.00;78.10;;;;;;4986674;28;20489;-81
2022/07/31 02:32:01;;;;;;;2.80;1.20;;;13.00;78.10;;;;;;4983916;28;20098;-78
2022/07/31 02:34:29;;;;;;;1.60;0.70;;;13.00;78.10;;;;;;4989638;28;20064;-68
2022/07/31 02:36:56;;;;;;;4.45;1.33;;;13.00;78.30;;;;;;4987566;28;20023;-68
2022/07/31 02:39:23;;;;;;;5.53;1.08;;;13.00;78.50;;;;;;4984020;28;20409;-70
2022/07/31 02:41:51;;;;;;;4.32;1.10;;;13.00;78.80;;;;;;4984482;28;20043;-71
2022/07/31 02:44:18;;;;;;;3.60;1.30;;;13.00;78.80;;;;;;4994713;28;20401;-68
2022/07/31 02:46:45;;;;;;;4.93;1.15;;;13.00;79.00;;;;;;4987374;28;20421;-69
2022/07/31 02:49:12;;;;;;;33.13;21.73;;;13.00;79.10;;;;;;4988776;28;20030;-71
2022/07/31 02:51:40;;;;;;;48.50;33.50;;;13.00;80.00;;;;;;4982033;28;20026;-70
2022/07/31 02:54:07;;;;;;;24.95;16.98;;;13.00;80.30;;;;;;4983816;28;20023;-68
2022/07/31 02:56:34;;;;;;;9.23;7.05;;;13.00;80.30;;;;;;4985470;28;20091;-68
2022/07/31 02:59:01;;;;;;;9.15;4.63;;;13.00;80.30;;;;;;4983063;28;20030;-67
2022/07/31 03:01:27;;;;;;;6.75;2.53;;;13.00;80.10;;;;;;4989904;28;20821;-68
2022/07/31 03:03:54;;;;;;;2.72;1.67;;;13.00;80.10;;;;;;4991724;28;20018;-67
2022/07/31 03:06:20;;;;;;;4.70;2.22;;;13.00;80.10;;;;;;4987476;28;20393;-75
2022/07/31 03:08:47;;;;;;;2.05;1.05;;;13.00;80.20;;;;;;4989055;28;20081;-68
2022/07/31 03:11:14;;;;;;;1.75;1.00;;;13.00;80.20;;;;;;4991052;28;20394;-68
2022/07/31 03:13:42;;;;;;;1.27;1.17;;;13.00;80.40;;;;;;4986536;28;20041;-76
2022/07/31 03:16:10;;;;;;;3.15;1.20;;;12.90;80.40;;;;;;4987773;28;20027;-79
2022/07/31 03:18:39;;;;;;;2.75;1.20;;;13.00;80.50;;;;;;4992677;28;20028;-67
2022/07/31 03:21:08;;;;;;;6.07;1.30;;;13.00;80.60;;;;;;4985630;28;20513;-72
2022/07/31 03:23:35;;;;;;;2.17;1.33;;;13.00;80.80;;;;;;4983027;28;20026;-72
2022/07/31 03:26:03;;;;;;;4.45;1.67;;;13.00;80.80;;;;;;4983671;28;20392;-70
2022/07/31 03:28:30;;;;;;;5.95;2.17;;;13.00;80.90;;;;;;4987809;28;20493;-81
2022/07/31 03:30:56;;;;;;;6.63;1.83;;;13.00;81.10;;;;;;4983924;28;20025;-68
2022/07/31 03:33:23;;;;;;;2.13;1.58;;;13.00;81.70;;;;;;4988805;28;20018;-69
2022/07/31 03:35:50;;;;;;;40.17;19.83;;;13.00;82.40;;;;;;4982172;28;20058;-75
2022/07/31 03:38:17;;;;;;;46.70;28.40;;;13.00;83.00;;;;;;4984656;28;20061;-73
2022/07/31 03:40:43;;;;;;;41.47;19.77;;;13.00;83.50;;;;;;4983689;28;20049;-68
2022/07/31 03:43:11;;;;;;;20.85;11.23;;;13.10;83.20;;;;;;4987131;28;20030;-77
2022/07/31 03:45:38;;;;;;;11.43;5.78;;;13.10;82.70;;;;;;4988120;28;20026;-68
2022/07/31 03:48:07;;;;;;;6.63;3.13;;;13.10;82.40;;;;;;4990469;28;20381;-68
2022/07/31 03:50:36;;;;;;;5.90;2.17;;;13.10;82.00;;;;;;4986781;28;20026;-75
2022/07/31 03:53:05;;;;;;;1.60;1.05;;;13.10;81.60;;;;;;4986550;28;20385;-73
2022/07/31 03:55:34;;;;;;;2.25;1.58;;;13.10;81.40;;;;;;4987347;28;20018;-74
2022/07/31 03:58:02;;;;;;;2.17;1.13;;;13.00;81.10;;;;;;4989240;28;20033;-77
2022/07/31 04:00:29;;;;;;;3.47;1.38;;;13.10;81.20;;;;;;4990404;28;20026;-71
2022/07/31 04:02:57;;;;;;;3.75;1.70;;;13.00;81.00;;;;;;4983385;28;20030;-67
2022/07/31 04:05:24;;;;;;;3.70;1.30;;;13.00;80.90;;;;;;4983743;28;20034;-70
2022/07/31 04:07:51;;;;;;;3.85;2.15;;;13.00;80.60;;;;;;4989617;28;20042;-80
2022/07/31 04:10:17;;;;;;;10.05;2.45;;;12.90;80.50;;;;;;4991056;28;20033;-77
2022/07/31 04:12:44;;;;;;;3.92;2.80;;;12.90;80.40;;;;;;5005162;28;20389;-77
2022/07/31 04:15:10;;;;;;;9.30;2.88;;;12.90;80.50;;;;;;4987581;28;20026;-77
2022/07/31 04:17:37;;;;;;;5.30;4.40;;;12.90;80.40;;;;;;4984764;28;20021;-85
2022/07/31 04:20:04;;;;;;;6.50;4.22;;;12.90;80.20;;;;;;4985087;28;20034;-73
2022/07/31 04:22:30;;;;;;;6.75;5.18;;;12.90;79.90;;;;;;4984739;28;20488;-66
2022/07/31 04:24:57;;;;;;;10.70;5.15;;;12.80;79.70;;;;;;4984600;28;20452;-70
2022/07/31 04:27:23;;;;;;;11.13;6.35;;;12.80;79.80;;;;;;4986086;28;20386;-69
2022/07/31 04:29:50;;;;;;;27.20;9.18;;;12.80;79.60;;;;;;4985685;28;20120;-68
2022/07/31 04:32:16;;;;;;;14.63;9.02;;;12.80;79.40;;;;;;4980785;28;20026;-75
2022/07/31 04:34:43;;;;;;;15.18;8.15;;;12.80;79.40;;;;;;4988955;28;20046;-75
2022/07/31 04:37:09;;;;;;;13.90;7.18;;;12.80;79.30;;;;;;4987547;28;20026;-71
2022/07/31 04:39:36;;;;;;;8.18;6.35;;;12.70;79.10;;;;;;4985742;28;20671;-69
2022/07/31 04:42:02;;;;;;;6.43;5.82;;;12.70;79.10;;;;;;4985255;28;20038;-68
2022/07/31 04:44:29;;;;;;;8.07;6.07;;;12.70;79.00;;;;;;4983350;28;20524;-72
2022/07/31 04:47:03;;;;;;;10.95;6.57;;;12.70;78.90;;;;;;4991189;28;20098;-68
2022/07/31 04:49:32;;;;;;;8.30;6.25;;;12.70;78.70;;;;;;4984929;28;21053;-70
2022/07/31 04:51:59;;;;;;;8.60;5.60;;;12.60;78.70;;;;;;4981809;28;20381;-71
2022/07/31 04:54:26;;;;;;;7.80;5.35;;;12.60;78.50;;;;;;4982775;28;20027;-74
2022/07/31 04:56:53;;;;;;;7.35;4.53;;;12.50;78.30;;;;;;4985832;28;20014;-72
2022/07/31 04:59:21;;;;;;;8.73;4.57;;;12.50;78.40;;;;;;4984778;28;20123;-70
2022/07/31 05:01:49;;;;;;;5.25;4.40;;;12.50;78.40;;;;;;4982353;28;20508;-74
2022/07/31 05:04:16;;;;;;;6.90;4.63;;;12.60;78.50;;;;;;4986377;28;20030;-67
2022/07/31 05:06:45;;;;;;;5.95;4.35;;;12.50;78.30;;;;;;4990241;28;20042;-73
2022/07/31 05:09:17;;;;;;;26.75;5.97;;;12.50;78.40;;;;;;4987565;28;20031;-72
2022/07/31 05:11:45;;;;;;;8.85;4.07;;;12.50;78.50;;;;;;4985791;28;20363;-73
2022/07/31 05:14:13;;;;;;;7.97;4.43;;;12.50;78.50;;;;;;4983783;28;20030;-81
2022/07/31 05:16:39;;;;;;;6.60;3.97;;;12.50;78.40;;;;;;4988493;28;20142;-73
2022/07/31 05:19:07;;;;;;;11.45;3.58;;;12.40;78.20;;;;;;4983555;28;20042;-79
2022/07/31 05:21:33;;;;;;;5.95;3.92;;;12.40;78.00;;;;;;4986205;28;20393;-67
2022/07/31 05:24:01;;;;;;;9.35;6.40;;;12.40;78.60;;;;;;4988779;28;20019;-71
2022/07/31 05:26:29;;;;;;;8.73;6.30;;;12.40;78.80;;;;;;4984821;28;20515;-73
2022/07/31 05:28:59;;;;;;;6.70;5.05;;;12.40;78.50;;;;;;4985603;28;20021;-68
2022/07/31 05:31:27;;;;;;;5.38;4.20;;;12.40;78.10;;;;;;4980572;28;20046;-70
2022/07/31 05:33:53;;;;;;;4.50;3.50;;;12.40;77.90;;;;;;4976993;28;20033;-73
2022/07/31 05:36:20;;;;;;;4.07;3.67;;;12.30;77.60;;;;;;4980544;28;20052;-65
2022/07/31 05:38:47;;;;;;;5.13;3.33;;;12.30;77.50;;;;;;4979716;28;20639;-75
2022/07/31 05:41:14;;;;;;;12.15;4.47;;;12.30;77.50;;;;;;4982089;28;20062;-73
2022/07/31 05:43:41;;;;;;;11.98;8.55;;;12.30;77.70;;;;;;4982183;28;20500;-71
2022/07/31 05:46:47;;;;;;;7.20;5.80;;;12.30;77.90;;;;;;4983158;28;20041;-72
2022/07/31 05:49:13;;;;;;;8.85;4.10;;;12.20;78.00;;;;;;4978609;28;20103;-72
2022/07/31 05:51:43;;;;;;;3.85;3.22;;;12.20;78.10;;;;;;4974981;28;20035;-72
2022/07/31 05:54:09;;;;;;;5.55;2.75;;;12.20;78.10;;;;;;4980118;28;20054;-77
2022/07/31 05:56:36;;;;;;;12.57;3.88;;;12.20;78.10;;;;;;4986923;28;20501;-73
2022/07/31 05:59:02;;;;;;;5.22;3.38;;;12.20;78.00;;;;;;4986337;28;20026;-71
2022/07/31 06:01:29;;;;;;;4.47;3.10;;;12.20;78.10;;;;;;4980916;28;20548;-72
2022/07/31 06:03:55;;;;;;;5.35;3.63;;;12.10;78.10;;;;;;4982764;28;20018;-75
2022/07/31 06:07:04;;;;;;;6.55;3.00;;;12.10;78.20;;;;;;4974814;28;20054;-77
2022/07/31 06:09:31;;;;;;;4.97;3.17;;;12.10;78.30;;;;;;4975032;28;20062;-72
2022/07/31 06:11:58;;;;;;;3.45;2.85;;;12.10;78.40;;;;;;4975927;28;20412;-75
2022/07/31 06:14:53;;;;;;;4.70;3.80;;;12.10;78.40;;;;;;4976812;28;20015;-72
2022/07/31 06:17:19;;;;;;;3.90;2.72;;;12.10;78.40;;;;;;4992073;28;20473;-74
2022/07/31 06:20:26;;;;;;;3.90;2.35;;;12.00;78.90;;;;;;4991327;28;20098;-70
2022/07/31 06:23:32;;;;;;;11.85;9.20;;;12.10;79.20;;;;;;4981172;28;20041;-74
2022/07/31 06:26:38;;;;;;;31.00;21.48;;;12.10;79.40;;;;;;4982714;28;20026;-71
2022/07/31 06:29:44;;;;;;;14.00;11.23;;;12.10;79.50;;;;;;4981103;28;20367;-69
2022/07/31 06:32:31;;;;;;;8.77;6.60;;;12.10;79.70;;;;;;4984763;28;20038;-69
2022/07/31 06:34:57;;;;;;;4.85;3.67;;;12.10;79.80;;;;;;4980870;28;20752;-69
2022/07/31 06:37:24;;;;;;;5.18;4.15;;;12.10;80.00;;;;;;4980935;28;20130;-69
2022/07/31 06:40:00;;;;;;;6.57;5.00;;;12.10;80.10;;;;;;4981489;28;20030;-70
2022/07/31 06:42:26;;;;;;;17.33;13.52;;;12.10;80.30;;;;;;4989028;28;20165;-68
2022/07/31 06:44:53;;;;;;;20.10;13.65;;;12.10;80.60;;;;;;4986255;28;20038;-68
2022/07/31 06:47:59;;;;;;;11.07;8.73;;;12.20;80.90;;;;;;4980278;28;20082;-68
2022/07/31 06:50:26;;;;;;;9.40;4.88;;;12.20;81.10;;;;;;4979999;28;20042;-69
2022/07/31 06:53:16;;;;;;;8.07;3.90;;;12.20;81.70;;;;;;4981220;28;20070;-68
2022/07/31 06:55:43;;;;;;;7.70;4.25;;;12.20;82.40;;;;;;5004776;28;20038;-69
2022/07/31 06:58:49;;;;;;;5.30;4.53;;;12.20;82.20;;;;;;4982917;28;20034;-70
2022/07/31 07:01:24;;;;;;;11.65;5.40;;;12.20;82.80;;;;;;4987302;28;20057;-70
2022/07/31 07:03:51;;;;;;;21.98;6.75;;;12.20;83.10;;;;;;5001850;28;20023;-70
2022/07/31 07:06:57;;;;;;;32.47;6.38;;;12.20;83.30;;;;;;4987634;28;20125;-69
2022/07/31 07:09:41;;;;;;;7.25;4.80;;;12.30;83.60;;;;;;4983277;28;20067;-70
2022/07/31 07:12:08;;;;;;;7.72;4.25;;;12.30;84.00;;;;;;4983960;28;20097;-72
2022/07/31 07:14:34;;;;;;;9.65;3.92;;;12.30;84.20;;;;;;4982239;28;20037;-71
2022/07/31 07:17:04;;;;;;;7.05;3.70;;;12.30;84.40;;;;;;4983409;28;20022;-71
2022/07/31 07:19:31;;;;;;;5.40;3.60;;;12.40;84.60;;;;;;4998607;28;20030;-71
2022/07/31 07:21:58;;;;;;;6.28;3.45;;;12.40;84.90;;;;;;4985698;28;20060;-71
2022/07/31 07:24:24;;;;;;;9.85;2.80;;;12.40;85.00;;;;;;4983217;28;20596;-71
2022/07/31 07:26:51;;;;;;;3.97;3.10;;;12.50;85.10;;;;;;4984100;28;20396;-71
2022/07/31 07:29:17;;;;;;;6.28;2.75;;;12.50;85.20;;;;;;4989790;28;20038;-71
2022/07/31 07:31:44;;;;;;;3.72;2.55;;;12.50;85.30;;;;;;4987569;28;20477;-73
2022/07/31 07:34:10;;;;;;;3.67;2.55;;;12.60;85.50;;;;;;4988492;28;20031;-69
2022/07/31 07:36:37;;;;;;;8.23;4.93;;;12.60;85.60;;;;;;4983334;28;20029;-70
2022/07/31 07:39:03;;;;;;;14.85;5.82;;;12.60;85.90;;;;;;4983539;28;20057;-71
2022/07/31 07:41:30;;;;;;;10.30;3.75;;;12.70;86.00;;;;;;4983349;28;20089;-69
2022/07/31 07:43:56;;;;;;;8.32;3.13;;;12.70;86.20;;;;;;4983075;28;20018;-70
2022/07/31 07:46:23;;;;;;;10.10;3.90;;;12.70;86.20;;;;;;4985521;28;20160;-71
2022/07/31 07:48:50;;;;;;;5.90;3.50;;;12.80;86.30;;;;;;4986180;28;20026;-70
2022/07/31 07:51:17;;;;;;;8.93;3.00;;;12.80;86.40;;;;;;4983782;28;20026;-70
2022/07/31 07:53:44;;;;;;;9.60;4.30;;;12.80;86.40;;;;;;4986607;28;20157;-71
2022/07/31 07:56:10;;;;;;;6.75;3.42;;;12.80;86.50;;;;;;4981960;28;20026;-70
2022/07/31 07:58:37;;;;;;;6.65;3.28;;;12.90;86.70;;;;;;4987056;28;20469;-69
2022/07/31 08:01:03;;;;;;;9.20;3.53;;;12.90;86.70;;;;;;4983442;28;20039;-70
2022/07/31 08:03:29;;;;;;;7.53;4.05;;;12.90;86.90;;;;;;4985505;28;20745;-70
2022/07/31 08:05:56;;;;;;;6.85;4.13;;;13.00;87.00;;;;;;4984286;28;20049;-70
2022/07/31 08:08:22;;;;;;;8.95;4.22;;;13.00;87.10;;;;;;4985565;28;20050;-70
2022/07/31 08:10:49;;;;;;;6.78;4.28;;;13.10;87.20;;;;;;4985209;28;20034;-71
2022/07/31 08:13:15;;;;;;;14.77;4.78;;;13.10;87.30;;;;;;4989097;28;20038;-69
2022/07/31 08:15:42;;;;;;;15.18;5.93;;;13.20;87.30;;;;;;4982585;28;20027;-70
2022/07/31 08:18:08;;;;;;;8.20;5.65;;;13.20;87.40;;;;;;4982438;28;20366;-70
2022/07/31 08:20:36;;;;;;;19.05;6.47;;;13.20;87.50;;;;;;4980399;28;20106;-72
2022/07/31 08:23:03;;;;;;;13.60;4.80;;;13.20;87.60;;;;;;4985058;28;20041;-70
2022/07/31 08:25:30;;;;;;;7.38;4.47;;;13.30;87.80;;;;;;4981313;28;20389;-72
2022/07/31 08:27:56;;;;;;;7.07;4.20;;;13.30;87.80;;;;;;4985043;28;20019;-71
2022/07/31 08:30:24;;;;;;;6.57;4.70;;;13.40;87.80;;;;;;4984317;28;20076;-70
2022/07/31 08:32:51;;;;;;;6.35;4.00;;;13.40;87.70;;;;;;4983938;28;20417;-70
2022/07/31 08:35:19;;;;;;;7.60;5.13;;;13.50;87.90;;;;;;4988274;28;20037;-71
2022/07/31 08:37:46;;;;;;;4.07;3.35;;;13.50;87.90;;;;;;4987452;28;20072;-69
2022/07/31 08:40:12;;;;;;;7.05;3.95;;;13.50;87.90;;;;;;4986903;28;20022;-69
2022/07/31 08:42:39;;;;;;;14.35;4.43;;;13.60;87.90;;;;;;4976883;28;20019;-70
2022/07/31 08:45:09;;;;;;;10.40;4.50;;;13.60;88.30;;;;;;4984991;28;20033;-70
2022/07/31 08:47:36;;;;;;;5.95;3.63;;;13.70;88.60;;;;;;4981301;28;20076;-69
2022/07/31 08:50:04;;;;;;;5.72;2.90;;;13.70;88.60;;;;;;4983243;28;20022;-68
2022/07/31 08:52:33;;;;;;;13.63;4.13;;;13.70;88.40;;;;;;4983165;28;20034;-74
2022/07/31 08:55:06;;;;;;;6.45;3.08;;;13.80;88.10;;;;;;4982700;28;20033;-70
2022/07/31 08:57:33;;;;;;;13.30;3.17;;;13.80;87.60;;;;;;4981861;28;20037;-70
2022/07/31 08:59:59;;;;;;;5.20;4.13;;;13.80;87.40;;;;;;4984083;28;20030;-69
2022/07/31 09:02:26;;;;;;;9.70;4.00;;;13.90;87.10;;;;;;4984260;28;20034;-69
2022/07/31 09:04:53;;;;;;;13.43;2.95;;;13.90;86.80;;;;;;4979210;28;20019;-69
2022/07/31 09:07:19;;;;;;;11.82;2.85;;;13.90;86.50;;;;;;4982931;28;20509;-69
2022/07/31 09:09:46;;;;;;;8.55;2.95;;;13.90;85.90;;;;;;4981018;28;20106;-69
2022/07/31 09:12:13;;;;;;;10.65;3.42;;;14.00;85.60;;;;;;4980482;28;20501;-70
2022/07/31 09:14:48;;;;;;;10.00;3.30;;;14.00;85.60;;;;;;4983695;28;20110;-69
2022/07/31 09:17:14;;;;;;;75.18;62.97;;;14.10;85.40;;;;;;4984898;28;20392;-69
2022/07/31 09:19:44;;;;;;;61.05;46.38;;;14.10;84.30;;;;;;4978941;28;20109;-70
2022/07/31 09:22:26;;;;;;;35.17;29.80;;;14.10;84.00;;;;;;4981124;28;20080;-70
2022/07/31 09:24:53;;;;;;;26.35;16.20;;;14.00;83.70;;;;;;4979954;28;20021;-70
2022/07/31 09:27:27;;;;;;;15.13;10.15;;;14.00;83.50;;;;;;4983605;28;20031;-70
2022/07/31 09:29:56;;;;;;;13.82;6.80;;;14.00;83.00;;;;;;4980794;28;20409;-70
2022/07/31 09:32:23;;;;;;;9.20;4.47;;;14.00;82.70;;;;;;4979993;28;20477;-71
2022/07/31 09:34:49;;;;;;;12.55;3.97;;;14.00;82.40;;;;;;4986887;28;20100;-71
2022/07/31 09:37:18;;;;;;;7.80;3.05;;;14.00;81.60;;;;;;4982778;28;20036;-69
2022/07/31 09:39:50;;;;;;;4.00;2.70;;;14.10;81.10;;;;;;4982416;28;20027;-71
2022/07/31 09:42:17;;;;;;;3.70;2.20;;;14.10;80.80;;;;;;4980890;28;20149;-74
2022/07/31 09:44:46;;;;;;;7.07;2.05;;;14.20;80.50;;;;;;4988381;28;20473;-73
2022/07/31 09:47:27;;;;;;;13.00;2.17;;;14.30;80.10;;;;;;4980614;28;20079;-68
2022/07/31 09:49:59;;;;;;;6.00;1.60;;;14.30;79.90;;;;;;4985062;28;20019;-70
2022/07/31 09:52:28;;;;;;;5.13;1.75;;;14.40;79.70;;;;;;4978297;28;20023;-70
2022/07/31 09:55:01;;;;;;;4.40;1.73;;;14.50;79.50;;;;;;4987550;28;20037;-71
2022/07/31 09:57:27;;;;;;;21.13;3.85;;;14.60;80.10;;;;;;4984629;28;20034;-72
2022/07/31 09:59:55;;;;;;;15.52;2.00;;;14.70;80.40;;;;;;4979446;28;20037;-71
2022/07/31 10:02:24;;;;;;;9.68;2.25;;;14.80;80.90;;;;;;4990176;28;20401;-73
2022/07/31 10:04:54;;;;;;;5.43;1.60;;;14.80;80.80;;;;;;4982594;28;20434;-73
2022/07/31 10:07:25;;;;;;;6.88;2.13;;;14.90;80.50;;;;;;4984210;28;20430;-75
2022/07/31 10:10:12;;;;;;;4.38;1.60;;;15.00;80.00;;;;;;4985683;28;20043;-76
2022/07/31 10:12:45;;;;;;;31.88;2.65;;;15.00;79.90;;;;;;4986978;28;20034;-72
2022/07/31 10:15:15;;;;;;;11.48;2.05;;;15.10;79.80;;;;;;4982088;28;20031;-78
2022/07/31 10:17:47;;;;;;;12.85;1.85;;;15.10;79.30;;;;;;4985090;28;20061;-72
2022/07/31 10:20:23;;;;;;;8.40;1.60;;;15.20;79.60;;;;;;4985014;28;20036;-74
2022/07/31 10:22:56;;;;;;;8.68;2.03;;;15.30;77.30;;;;;;4983918;28;20037;-69
2022/07/31 10:25:28;;;;;;;15.45;2.78;;;15.40;74.60;;;;;;4987304;28;20015;-75
2022/07/31 10:27:56;;;;;;;27.67;3.20;;;15.50;71.80;;;;;;4979323;28;20042;-75
2022/07/31 10:30:23;;;;;;;7.97;3.17;;;15.60;72.50;;;;;;4984135;28;20056;-72
2022/07/31 10:32:50;;;;;;;9.30;3.38;;;15.50;72.50;;;;;;4989625;28;20018;-72
2022/07/31 10:35:18;;;;;;;12.80;5.53;;;15.50;72.30;;;;;;4981994;28;20034;-73
2022/07/31 10:38:06;;;;;;;17.02;6.40;;;15.60;71.50;;;;;;4982736;28;20075;-75
2022/07/31 10:40:48;;;;;;;13.50;4.57;;;15.60;71.00;;;;;;4986418;28;20042;-72
2022/07/31 10:43:29;;;;;;;7.50;3.80;;;15.70;70.00;;;;;;4982718;28;20509;-74
2022/07/31 10:45:55;;;;;;;8.73;2.47;;;15.70;70.00;;;;;;4981612;28;20040;-77
2022/07/31 10:48:22;;;;;;;5.90;2.08;;;15.70;69.40;;;;;;4983990;28;20022;-71
2022/07/31 10:51:04;;;;;;;17.77;4.15;;;15.70;69.50;;;;;;4996005;28;20030;-70
2022/07/31 10:53:30;;;;;;;5.97;2.60;;;15.80;69.40;;;;;;4982822;28;20500;-74
2022/07/31 10:56:02;;;;;;;9.45;2.95;;;15.80;69.20;;;;;;4980995;28;20053;-69
2022/07/31 10:58:29;;;;;;;5.93;2.78;;;15.90;68.50;;;;;;4984936;28;20673;-70
2022/07/31 11:01:10;;;;;;;6.10;3.45;;;15.90;68.10;;;;;;4984157;28;20047;-73
2022/07/31 11:03:46;;;;;;;7.80;2.17;;;15.90;67.20;;;;;;4981371;28;20039;-73
2022/07/31 11:06:14;;;;;;;26.35;3.55;;;15.90;67.10;;;;;;4978987;28;20367;-72
2022/07/31 11:08:50;;;;;;;4.88;1.38;;;16.00;66.80;;;;;;4976765;28;20125;-69
2022/07/31 11:11:29;;;;;;;4.88;2.80;;;16.00;66.90;;;;;;4986925;28;20465;-69
2022/07/31 11:13:56;;;;;;;19.48;3.80;;;16.00;66.40;;;;;;4978030;28;20070;-72
2022/07/31 11:16:23;;;;;;;27.15;4.47;;;16.00;65.60;;;;;;4980038;28;20035;-71
2022/07/31 11:19:00;;;;;;;15.32;2.70;;;16.10;66.10;;;;;;4981696;28;20101;-71
2022/07/31 11:21:41;;;;;;;18.65;13.63;;;16.20;63.80;;;;;;4985377;28;20034;-71
2022/07/31 11:24:32;;;;;;;11.77;3.47;;;16.40;59.80;;;;;;4983212;28;20114;-68
2022/07/31 11:26:59;;;;;;;11.82;7.35;;;16.50;58.80;;;;;;4988493;28;20460;-71
2022/07/31 11:29:31;;;;;;;10.82;4.20;;;16.60;59.40;;;;;;4982838;28;20058;-71
2022/07/31 11:32:17;;;;;;;16.90;8.15;;;16.70;59.10;;;;;;4979417;28;20473;-69
2022/07/31 11:34:52;;;;;;;8.73;2.75;;;16.80;59.10;;;;;;4984036;28;20033;-69
2022/07/31 11:37:58;;;;;;;2.95;1.60;;;16.90;58.70;;;;;;4978939;28;20031;-68
2022/07/31 11:40:25;;;;;;;62.47;32.15;;;16.90;58.60;;;;;;4978554;28;20026;-68
2022/07/31 11:42:52;;;;;;;44.10;23.45;;;17.00;57.00;;;;;;4981110;28;20058;-67
2022/07/31 11:45:19;;;;;;;18.00;9.15;;;17.10;56.90;;;;;;4987200;28;20038;-71
2022/07/31 11:47:47;;;;;;;5.35;3.97;;;17.10;55.10;;;;;;4983011;28;20116;-69
2022/07/31 11:50:14;;;;;;;5.97;3.70;;;17.20;51.00;;;;;;4985508;28;20027;-66
2022/07/31 11:52:42;;;;;;;28.67;18.42;;;17.10;51.70;;;;;;4981649;28;20061;-66
2022/07/31 11:55:51;;;;;;;5.53;3.17;;;17.20;52.70;;;;;;4983068;28;20045;-69
2022/07/31 11:58:57;;;;;;;5.63;2.83;;;17.20;54.10;;;;;;4980212;28;20370;-70
2022/07/31 12:02:03;;;;;;;26.50;16.65;;;17.30;53.80;;;;;;4986665;28;20045;-68
2022/07/31 12:04:50;;;;;;;71.57;45.90;;;17.30;51.70;;;;;;4983438;28;20022;-67
2022/07/31 12:07:45;;;;;;;16.30;9.48;;;17.40;51.70;;;;;;4987130;28;20054;-70
2022/07/31 12:10:51;;;;;;;5.07;3.35;;;17.50;52.50;;;;;;4996969;28;20031;-67
2022/07/31 12:13:19;;;;;;;1.65;1.00;;;17.50;51.60;;;;;;4979767;28;20113;-69
2022/07/31 12:16:07;;;;;;;2.92;1.00;;;17.50;49.50;;;;;;4977701;28;20528;-67
2022/07/31 12:18:59;;;;;;;7.47;1.20;;;17.50;50.40;;;;;;4976794;28;20038;-67
2022/07/31 12:21:34;;;;;;;5.82;1.10;;;17.60;50.50;;;;;;4985640;28;20053;-68
2022/07/31 12:24:11;;;;;;;4.05;1.88;;;17.60;50.60;;;;;;4978072;28;20023;-66
2022/07/31 12:26:52;;;;;;;3.13;1.75;;;17.60;49.50;;;;;;4993594;28;20082;-66
2022/07/31 12:29:19;;;;;;;4.47;1.25;;;17.60;49.70;;;;;;4992498;28;20022;-68
2022/07/31 12:31:48;;;;;;;4.20;1.90;;;17.70;50.90;;;;;;4976248;28;20018;-70
2022/07/31 12:34:33;;;;;;;3.92;1.75;;;17.70;51.00;;;;;;4979317;28;20068;-71
2022/07/31 12:37:09;;;;;;;5.30;1.80;;;17.70;50.10;;;;;;4980841;28;20026;-70
2022/07/31 12:39:49;;;;;;;;;;;17.80;50.10;;;;;;4991864;28;20409;-69
2022/07/31 12:42:33;;;;;;;4.80;2.88;;;17.80;51.90;;;;;;4981493;28;19965;-71
2022/07/31 12:45:35;;;;;;;9.88;2.40;;;17.70;52.60;;;;;;4981073;28;20027;-68
2022/07/31 12:48:18;;;;;;;3.75;2.33;;;17.70;52.90;;;;;;4987062;28;20109;-70
2022/07/31 12:50:44;;;;;;;3.05;1.67;;;17.60;54.10;;;;;;4978386;28;20659;-70
2022/07/31 12:53:31;;;;;;;4.43;1.20;;;17.60;54.60;;;;;;4976809;28;20019;-75
2022/07/31 12:55:57;;;;;;;2.00;1.02;;;17.60;54.90;;;;;;4980045;28;20512;-73
2022/07/31 12:58:24;;;;;;;3.63;1.77;;;17.60;55.10;;;;;;4980723;28;20104;-74
2022/07/31 13:01:09;;;;;;;2.92;1.10;;;17.60;55.30;;;;;;4979369;28;20034;-77
2022/07/31 13:04:15;;;;;;;2.67;0.77;;;17.50;55.30;;;;;;4981194;28;20026;-73
2022/07/31 13:07:22;;;;;;;2.28;0.90;;;17.50;55.50;;;;;;4977300;28;20078;-74